sensor_id;sensor_type;location;lat;lon;timestamp;P1;durP1;ratioP1;P2;durP2;ratioP2
25073;SDS011;13066;52.042;5.648;2023-05-02T00:01:04;29.65;;;16.60;;
25073;SDS011;13066;52.042;5.648;2023-05-02T00:03:32;28.83;;;16.55;;
25073;SDS011;13066;52.042;5.648;2023-05-02T00:06:00;28.42;;;17.42;;
25073;SDS011;13066;52.042;5.648;2023-05-02T00:08:28;25.63;;;16.63;;
25073;SDS011;13066;52.042;5.648;2023-05-02T00:10:58;33.63;;;17.25;;
25073;SDS011;13066;52.042;5.648;2023-05-02T00:13:26;30.55;;;18.67;;
25073;SDS011;13066;52.042;5.648;2023-05-02T00:15:54;30.98;;;19.00;;
25073;SDS011;13066;52.042;5.648;2023-05-02T00:18:23;32.45;;;20.45;;
25073;SDS011;13066;52.042;5.648;2023-05-02T00:20:50;36.03;;;20.42;;
25073;SDS011;13066;52.042;5.648;2023-05-02T00:23:19;34.65;;;20.63;;
25073;SDS011;13066;52.042;5.648;2023-05-02T00:25:47;35.55;;;20.58;;
25073;SDS011;13066;52.042;5.648;2023-05-02T00:28:16;38.13;;;21.48;;
25073;SDS011;13066;52.042;5.648;2023-05-02T00:30:44;34.15;;;20.65;;
25073;SDS011;13066;52.042;5.648;2023-05-02T00:33:13;34.55;;;21.23;;
25073;SDS011;13066;52.042;5.648;2023-05-02T00:35:41;34.50;;;20.77;;
25073;SDS011;13066;52.042;5.648;2023-05-02T00:38:09;34.20;;;21.10;;
25073;SDS011;13066;52.042;5.648;2023-05-02T00:40:44;37.40;;;21.90;;
25073;SDS011;13066;52.042;5.648;2023-05-02T00:43:13;35.42;;;21.80;;
25073;SDS011;13066;52.042;5.648;2023-05-02T00:45:43;39.55;;;21.50;;
25073;SDS011;13066;52.042;5.648;2023-05-02T00:48:12;41.15;;;22.70;;
25073;SDS011;13066;52.042;5.648;2023-05-02T00:50:40;34.90;;;20.17;;
25073;SDS011;13066;52.042;5.648;2023-05-02T00:53:09;31.45;;;19.00;;
25073;SDS011;13066;52.042;5.648;2023-05-02T00:55:37;32.00;;;19.38;;
25073;SDS011;13066;52.042;5.648;2023-05-02T00:58:06;31.88;;;19.30;;
25073;SDS011;13066;52.042;5.648;2023-05-02T01:00:40;35.47;;;19.75;;
25073;SDS011;13066;52.042;5.648;2023-05-02T01:03:19;33.47;;;18.85;;
25073;SDS011;13066;52.042;5.648;2023-05-02T01:05:57;36.35;;;18.58;;
25073;SDS011;13066;52.042;5.648;2023-05-02T01:08:33;32.20;;;18.85;;
25073;SDS011;13066;52.042;5.648;2023-05-02T01:11:04;31.05;;;17.98;;
25073;SDS011;13066;52.042;5.648;2023-05-02T01:13:37;32.03;;;18.10;;
25073;SDS011;13066;52.042;5.648;2023-05-02T01:16:07;30.70;;;17.15;;
25073;SDS011;13066;52.042;5.648;2023-05-02T01:18:39;27.88;;;17.20;;
25073;SDS011;13066;52.042;5.648;2023-05-02T01:21:09;31.38;;;16.30;;
25073;SDS011;13066;52.042;5.648;2023-05-02T01:23:45;28.27;;;16.38;;
25073;SDS011;13066;52.042;5.648;2023-05-02T01:26:23;28.10;;;16.00;;
25073;SDS011;13066;52.042;5.648;2023-05-02T01:31:25;24.15;;;13.48;;
25073;SDS011;13066;52.042;5.648;2023-05-02T01:33:54;22.50;;;11.20;;
25073;SDS011;13066;52.042;5.648;2023-05-02T01:36:24;23.23;;;10.38;;
25073;SDS011;13066;52.042;5.648;2023-05-02T01:38:56;21.10;;;9.80;;
25073;SDS011;13066;52.042;5.648;2023-05-02T01:41:25;22.27;;;9.57;;
25073;SDS011;13066;52.042;5.648;2023-05-02T01:43:55;19.40;;;9.38;;
25073;SDS011;13066;52.042;5.648;2023-05-02T01:46:25;23.70;;;8.93;;
25073;SDS011;13066;52.042;5.648;2023-05-02T01:48:54;15.88;;;7.90;;
25073;SDS011;13066;52.042;5.648;2023-05-02T01:51:24;18.90;;;7.85;;
25073;SDS011;13066;52.042;5.648;2023-05-02T01:53:55;16.05;;;7.60;;
25073;SDS011;13066;52.042;5.648;2023-05-02T01:56:23;16.85;;;6.88;;
25073;SDS011;13066;52.042;5.648;2023-05-02T01:58:53;20.95;;;6.38;;
25073;SDS011;13066;52.042;5.648;2023-05-02T02:01:24;15.10;;;5.28;;
25073;SDS011;13066;52.042;5.648;2023-05-02T02:03:56;18.48;;;5.15;;
25073;SDS011;13066;52.042;5.648;2023-05-02T02:06:25;18.35;;;4.75;;
25073;SDS011;13066;52.042;5.648;2023-05-02T02:08:54;9.48;;;4.32;;
25073;SDS011;13066;52.042;5.648;2023-05-02T02:11:23;12.80;;;4.10;;
25073;SDS011;13066;52.042;5.648;2023-05-02T02:14:00;13.05;;;4.05;;
25073;SDS011;13066;52.042;5.648;2023-05-02T02:16:34;12.93;;;3.65;;
25073;SDS011;13066;52.042;5.648;2023-05-02T02:19:05;13.65;;;3.58;;
25073;SDS011;13066;52.042;5.648;2023-05-02T02:21:34;16.20;;;3.97;;
25073;SDS011;13066;52.042;5.648;2023-05-02T02:24:04;21.95;;;3.65;;
25073;SDS011;13066;52.042;5.648;2023-05-02T02:26:34;13.20;;;3.55;;
25073;SDS011;13066;52.042;5.648;2023-05-02T02:29:03;14.93;;;3.33;;
25073;SDS011;13066;52.042;5.648;2023-05-02T02:31:31;18.05;;;3.28;;
25073;SDS011;13066;52.042;5.648;2023-05-02T02:34:01;10.93;;;2.85;;
25073;SDS011;13066;52.042;5.648;2023-05-02T02:36:31;11.80;;;2.83;;
25073;SDS011;13066;52.042;5.648;2023-05-02T02:39:02;12.45;;;3.40;;
25073;SDS011;13066;52.042;5.648;2023-05-02T02:41:37;11.95;;;2.80;;
25073;SDS011;13066;52.042;5.648;2023-05-02T02:44:12;11.25;;;3.20;;
25073;SDS011;13066;52.042;5.648;2023-05-02T02:46:45;12.43;;;3.00;;
25073;SDS011;13066;52.042;5.648;2023-05-02T02:49:25;12.55;;;2.78;;
25073;SDS011;13066;52.042;5.648;2023-05-02T02:51:57;9.88;;;2.50;;
25073;SDS011;13066;52.042;5.648;2023-05-02T02:54:31;11.15;;;2.95;;
25073;SDS011;13066;52.042;5.648;2023-05-02T02:57:01;15.05;;;3.30;;
25073;SDS011;13066;52.042;5.648;2023-05-02T02:59:35;19.08;;;3.25;;
25073;SDS011;13066;52.042;5.648;2023-05-02T03:02:07;14.57;;;3.30;;
25073;SDS011;13066;52.042;5.648;2023-05-02T03:04:37;8.95;;;2.50;;
25073;SDS011;13066;52.042;5.648;2023-05-02T03:07:06;16.58;;;2.70;;
25073;SDS011;13066;52.042;5.648;2023-05-02T03:09:41;20.48;;;3.28;;
25073;SDS011;13066;52.042;5.648;2023-05-02T03:12:14;16.17;;;3.10;;
25073;SDS011;13066;52.042;5.648;2023-05-02T03:14:44;17.17;;;3.10;;
25073;SDS011;13066;52.042;5.648;2023-05-02T03:17:12;14.85;;;3.13;;
25073;SDS011;13066;52.042;5.648;2023-05-02T03:19:41;13.10;;;3.00;;
25073;SDS011;13066;52.042;5.648;2023-05-02T03:22:10;11.57;;;2.35;;
25073;SDS011;13066;52.042;5.648;2023-05-02T03:24:38;12.90;;;3.10;;
25073;SDS011;13066;52.042;5.648;2023-05-02T03:27:08;18.90;;;2.90;;
25073;SDS011;13066;52.042;5.648;2023-05-02T03:29:39;15.55;;;2.83;;
25073;SDS011;13066;52.042;5.648;2023-05-02T03:32:11;12.63;;;2.50;;
25073;SDS011;13066;52.042;5.648;2023-05-02T03:34:41;9.15;;;2.38;;
25073;SDS011;13066;52.042;5.648;2023-05-02T03:37:10;11.27;;;2.70;;
25073;SDS011;13066;52.042;5.648;2023-05-02T03:39:38;9.40;;;2.35;;
25073;SDS011;13066;52.042;5.648;2023-05-02T03:42:06;8.65;;;2.67;;
25073;SDS011;13066;52.042;5.648;2023-05-02T03:44:35;9.70;;;2.35;;
25073;SDS011;13066;52.042;5.648;2023-05-02T03:47:03;10.23;;;2.60;;
25073;SDS011;13066;52.042;5.648;2023-05-02T03:49:37;7.43;;;2.45;;
25073;SDS011;13066;52.042;5.648;2023-05-02T03:52:07;12.05;;;2.22;;
25073;SDS011;13066;52.042;5.648;2023-05-02T03:54:36;9.05;;;2.53;;
25073;SDS011;13066;52.042;5.648;2023-05-02T03:57:05;10.00;;;2.55;;
25073;SDS011;13066;52.042;5.648;2023-05-02T03:59:34;15.52;;;2.47;;
25073;SDS011;13066;52.042;5.648;2023-05-02T04:02:11;11.77;;;2.95;;
25073;SDS011;13066;52.042;5.648;2023-05-02T04:04:45;7.88;;;2.60;;
25073;SDS011;13066;52.042;5.648;2023-05-02T04:07:16;12.75;;;2.88;;
25073;SDS011;13066;52.042;5.648;2023-05-02T04:09:55;10.65;;;2.40;;
25073;SDS011;13066;52.042;5.648;2023-05-02T04:12:24;9.77;;;2.50;;
25073;SDS011;13066;52.042;5.648;2023-05-02T04:14:52;11.43;;;3.15;;
25073;SDS011;13066;52.042;5.648;2023-05-02T04:17:25;9.40;;;2.42;;
25073;SDS011;13066;52.042;5.648;2023-05-02T04:19:55;7.03;;;2.50;;
25073;SDS011;13066;52.042;5.648;2023-05-02T04:22:26;8.90;;;2.65;;
25073;SDS011;13066;52.042;5.648;2023-05-02T04:24:58;11.15;;;2.83;;
25073;SDS011;13066;52.042;5.648;2023-05-02T04:27:27;12.93;;;2.63;;
25073;SDS011;13066;52.042;5.648;2023-05-02T04:29:57;8.35;;;2.20;;
25073;SDS011;13066;52.042;5.648;2023-05-02T04:32:25;12.48;;;2.53;;
25073;SDS011;13066;52.042;5.648;2023-05-02T04:34:56;11.93;;;2.70;;
25073;SDS011;13066;52.042;5.648;2023-05-02T04:37:24;15.30;;;2.92;;
25073;SDS011;13066;52.042;5.648;2023-05-02T04:39:53;10.52;;;3.15;;
25073;SDS011;13066;52.042;5.648;2023-05-02T04:42:24;10.93;;;2.60;;
25073;SDS011;13066;52.042;5.648;2023-05-02T04:44:59;8.70;;;2.42;;
25073;SDS011;13066;52.042;5.648;2023-05-02T04:47:28;10.05;;;2.47;;
25073;SDS011;13066;52.042;5.648;2023-05-02T04:49:57;11.18;;;2.78;;
25073;SDS011;13066;52.042;5.648;2023-05-02T04:52:27;10.05;;;2.35;;
25073;SDS011;13066;52.042;5.648;2023-05-02T04:54:55;12.90;;;2.65;;
25073;SDS011;13066;52.042;5.648;2023-05-02T04:57:23;9.70;;;2.53;;
25073;SDS011;13066;52.042;5.648;2023-05-02T04:59:55;6.40;;;2.45;;
25073;SDS011;13066;52.042;5.648;2023-05-02T05:02:24;10.18;;;2.90;;
25073;SDS011;13066;52.042;5.648;2023-05-02T05:04:54;11.25;;;2.95;;
25073;SDS011;13066;52.042;5.648;2023-05-02T05:07:24;10.32;;;2.95;;
25073;SDS011;13066;52.042;5.648;2023-05-02T05:09:53;13.15;;;2.67;;
25073;SDS011;13066;52.042;5.648;2023-05-02T05:12:24;9.10;;;2.97;;
25073;SDS011;13066;52.042;5.648;2023-05-02T05:14:52;13.48;;;2.63;;
25073;SDS011;13066;52.042;5.648;2023-05-02T05:17:23;13.35;;;2.63;;
25073;SDS011;13066;52.042;5.648;2023-05-02T05:19:52;10.30;;;2.40;;
25073;SDS011;13066;52.042;5.648;2023-05-02T05:22:21;20.75;;;3.22;;
25073;SDS011;13066;52.042;5.648;2023-05-02T05:24:51;7.47;;;2.33;;
25073;SDS011;13066;52.042;5.648;2023-05-02T05:27:23;7.78;;;2.15;;
25073;SDS011;13066;52.042;5.648;2023-05-02T05:29:51;10.70;;;2.38;;
25073;SDS011;13066;52.042;5.648;2023-05-02T05:32:20;11.25;;;2.50;;
25073;SDS011;13066;52.042;5.648;2023-05-02T05:34:50;9.32;;;2.58;;
25073;SDS011;13066;52.042;5.648;2023-05-02T05:37:20;15.95;;;2.85;;
25073;SDS011;13066;52.042;5.648;2023-05-02T05:39:49;11.45;;;2.75;;
25073;SDS011;13066;52.042;5.648;2023-05-02T05:42:18;15.00;;;2.92;;
25073;SDS011;13066;52.042;5.648;2023-05-02T05:44:49;13.70;;;3.00;;
25073;SDS011;13066;52.042;5.648;2023-05-02T05:47:18;14.82;;;3.47;;
25073;SDS011;13066;52.042;5.648;2023-05-02T05:49:51;18.38;;;3.50;;
25073;SDS011;13066;52.042;5.648;2023-05-02T05:52:21;20.92;;;3.03;;
25073;SDS011;13066;52.042;5.648;2023-05-02T05:54:53;11.75;;;3.17;;
25073;SDS011;13066;52.042;5.648;2023-05-02T05:57:25;17.27;;;3.72;;
25073;SDS011;13066;52.042;5.648;2023-05-02T05:59:55;19.30;;;3.80;;
25073;SDS011;13066;52.042;5.648;2023-05-02T06:02:24;20.77;;;3.83;;
25073;SDS011;13066;52.042;5.648;2023-05-02T06:04:54;15.45;;;3.65;;
25073;SDS011;13066;52.042;5.648;2023-05-02T06:07:24;14.60;;;3.60;;
25073;SDS011;13066;52.042;5.648;2023-05-02T06:09:53;16.58;;;3.15;;
25073;SDS011;13066;52.042;5.648;2023-05-02T06:12:21;22.45;;;4.13;;
25073;SDS011;13066;52.042;5.648;2023-05-02T06:14:50;17.38;;;3.60;;
25073;SDS011;13066;52.042;5.648;2023-05-02T06:17:19;28.10;;;4.50;;
25073;SDS011;13066;52.042;5.648;2023-05-02T06:19:48;17.70;;;3.78;;
25073;SDS011;13066;52.042;5.648;2023-05-02T06:22:16;13.68;;;4.15;;
25073;SDS011;13066;52.042;5.648;2023-05-02T06:24:44;20.52;;;4.35;;
25073;SDS011;13066;52.042;5.648;2023-05-02T06:27:14;25.20;;;3.85;;
25073;SDS011;13066;52.042;5.648;2023-05-02T06:29:42;15.77;;;4.05;;
25073;SDS011;13066;52.042;5.648;2023-05-02T06:32:10;19.55;;;3.60;;
25073;SDS011;13066;52.042;5.648;2023-05-02T06:34:38;18.67;;;3.63;;
25073;SDS011;13066;52.042;5.648;2023-05-02T06:37:06;19.98;;;3.63;;
25073;SDS011;13066;52.042;5.648;2023-05-02T06:39:34;11.38;;;3.05;;
25073;SDS011;13066;52.042;5.648;2023-05-02T06:42:03;15.02;;;3.20;;
25073;SDS011;13066;52.042;5.648;2023-05-02T06:44:33;13.60;;;3.20;;
25073;SDS011;13066;52.042;5.648;2023-05-02T06:47:03;20.27;;;2.65;;
25073;SDS011;13066;52.042;5.648;2023-05-02T06:49:32;10.02;;;2.30;;
25073;SDS011;13066;52.042;5.648;2023-05-02T06:52:00;12.38;;;2.80;;
25073;SDS011;13066;52.042;5.648;2023-05-02T06:54:28;13.60;;;3.33;;
25073;SDS011;13066;52.042;5.648;2023-05-02T06:56:58;10.55;;;2.75;;
25073;SDS011;13066;52.042;5.648;2023-05-02T06:59:26;11.40;;;2.88;;
25073;SDS011;13066;52.042;5.648;2023-05-02T07:01:58;9.05;;;2.70;;
25073;SDS011;13066;52.042;5.648;2023-05-02T07:04:30;11.77;;;2.67;;
25073;SDS011;13066;52.042;5.648;2023-05-02T07:06:58;14.70;;;3.03;;
25073;SDS011;13066;52.042;5.648;2023-05-02T07:09:26;13.88;;;2.80;;
25073;SDS011;13066;52.042;5.648;2023-05-02T07:11:54;11.85;;;2.90;;
25073;SDS011;13066;52.042;5.648;2023-05-02T07:14:22;15.30;;;2.92;;
25073;SDS011;13066;52.042;5.648;2023-05-02T07:16:50;14.88;;;2.80;;
25073;SDS011;13066;52.042;5.648;2023-05-02T07:19:21;14.30;;;2.97;;
25073;SDS011;13066;52.042;5.648;2023-05-02T07:21:50;11.88;;;2.72;;
25073;SDS011;13066;52.042;5.648;2023-05-02T07:24:18;13.38;;;2.50;;
25073;SDS011;13066;52.042;5.648;2023-05-02T07:26:46;13.52;;;2.80;;
25073;SDS011;13066;52.042;5.648;2023-05-02T07:29:14;15.13;;;2.83;;
25073;SDS011;13066;52.042;5.648;2023-05-02T07:31:42;16.75;;;2.78;;
25073;SDS011;13066;52.042;5.648;2023-05-02T07:34:11;11.00;;;2.90;;
25073;SDS011;13066;52.042;5.648;2023-05-02T07:36:40;17.48;;;2.85;;
25073;SDS011;13066;52.042;5.648;2023-05-02T07:39:08;14.60;;;2.85;;
25073;SDS011;13066;52.042;5.648;2023-05-02T07:41:37;20.40;;;3.88;;
25073;SDS011;13066;52.042;5.648;2023-05-02T07:44:05;14.52;;;3.10;;
25073;SDS011;13066;52.042;5.648;2023-05-02T07:46:33;16.10;;;3.20;;
25073;SDS011;13066;52.042;5.648;2023-05-02T07:49:02;18.27;;;3.20;;
25073;SDS011;13066;52.042;5.648;2023-05-02T07:51:30;13.38;;;3.70;;
25073;SDS011;13066;52.042;5.648;2023-05-02T07:54:00;11.73;;;3.17;;
25073;SDS011;13066;52.042;5.648;2023-05-02T07:56:28;13.27;;;3.10;;
25073;SDS011;13066;52.042;5.648;2023-05-02T07:58:56;10.85;;;2.50;;
25073;SDS011;13066;52.042;5.648;2023-05-02T08:01:24;7.45;;;2.60;;
25073;SDS011;13066;52.042;5.648;2023-05-02T08:03:54;12.13;;;2.72;;
25073;SDS011;13066;52.042;5.648;2023-05-02T08:06:22;14.05;;;2.67;;
25073;SDS011;13066;52.042;5.648;2023-05-02T08:08:51;15.95;;;2.80;;
25073;SDS011;13066;52.042;5.648;2023-05-02T08:11:20;14.55;;;3.22;;
25073;SDS011;13066;52.042;5.648;2023-05-02T08:13:51;11.30;;;2.70;;
25073;SDS011;13066;52.042;5.648;2023-05-02T08:16:19;10.25;;;2.40;;
25073;SDS011;13066;52.042;5.648;2023-05-02T08:18:47;8.68;;;2.58;;
25073;SDS011;13066;52.042;5.648;2023-05-02T08:21:15;9.27;;;2.30;;
25073;SDS011;13066;52.042;5.648;2023-05-02T08:23:44;14.27;;;2.35;;
25073;SDS011;13066;52.042;5.648;2023-05-02T08:26:12;15.32;;;2.53;;
25073;SDS011;13066;52.042;5.648;2023-05-02T08:28:42;13.02;;;2.25;;
25073;SDS011;13066;52.042;5.648;2023-05-02T08:31:10;14.30;;;2.63;;
25073;SDS011;13066;52.042;5.648;2023-05-02T08:33:39;10.48;;;2.20;;
25073;SDS011;13066;52.042;5.648;2023-05-02T08:36:11;18.58;;;2.45;;
25073;SDS011;13066;52.042;5.648;2023-05-02T08:38:40;9.15;;;2.05;;
25073;SDS011;13066;52.042;5.648;2023-05-02T08:41:09;10.43;;;2.65;;
25073;SDS011;13066;52.042;5.648;2023-05-02T08:43:38;10.18;;;2.20;;
25073;SDS011;13066;52.042;5.648;2023-05-02T08:46:08;9.38;;;2.53;;
25073;SDS011;13066;52.042;5.648;2023-05-02T08:48:38;13.95;;;2.10;;
25073;SDS011;13066;52.042;5.648;2023-05-02T08:51:08;6.60;;;2.00;;
25073;SDS011;13066;52.042;5.648;2023-05-02T08:53:37;8.32;;;1.90;;
25073;SDS011;13066;52.042;5.648;2023-05-02T08:56:06;13.88;;;2.63;;
25073;SDS011;13066;52.042;5.648;2023-05-02T08:58:35;10.55;;;2.45;;
25073;SDS011;13066;52.042;5.648;2023-05-02T09:01:07;9.35;;;2.13;;
25073;SDS011;13066;52.042;5.648;2023-05-02T09:03:41;8.77;;;2.10;;
25073;SDS011;13066;52.042;5.648;2023-05-02T09:06:10;6.68;;;2.08;;
25073;SDS011;13066;52.042;5.648;2023-05-02T09:08:42;10.07;;;2.15;;
25073;SDS011;13066;52.042;5.648;2023-05-02T09:11:11;9.05;;;2.03;;
25073;SDS011;13066;52.042;5.648;2023-05-02T09:13:40;7.75;;;2.00;;
25073;SDS011;13066;52.042;5.648;2023-05-02T09:16:11;11.02;;;1.95;;
25073;SDS011;13066;52.042;5.648;2023-05-02T09:18:40;9.73;;;2.00;;
25073;SDS011;13066;52.042;5.648;2023-05-02T09:21:10;9.52;;;2.25;;
25073;SDS011;13066;52.042;5.648;2023-05-02T09:23:39;5.57;;;1.98;;
25073;SDS011;13066;52.042;5.648;2023-05-02T09:26:18;8.10;;;1.90;;
25073;SDS011;13066;52.042;5.648;2023-05-02T09:28:47;4.90;;;1.88;;
25073;SDS011;13066;52.042;5.648;2023-05-02T09:31:18;5.28;;;1.88;;
25073;SDS011;13066;52.042;5.648;2023-05-02T09:34:07;3.97;;;1.90;;
25073;SDS011;13066;52.042;5.648;2023-05-02T09:36:38;5.60;;;1.60;;
25073;SDS011;13066;52.042;5.648;2023-05-02T09:39:08;6.47;;;1.70;;
25073;SDS011;13066;52.042;5.648;2023-05-02T09:41:39;7.82;;;1.70;;
25073;SDS011;13066;52.042;5.648;2023-05-02T09:44:09;10.35;;;1.90;;
25073;SDS011;13066;52.042;5.648;2023-05-02T09:46:40;6.78;;;1.80;;
25073;SDS011;13066;52.042;5.648;2023-05-02T09:49:09;7.18;;;1.90;;
25073;SDS011;13066;52.042;5.648;2023-05-02T09:51:37;11.77;;;2.08;;
25073;SDS011;13066;52.042;5.648;2023-05-02T09:54:05;7.82;;;1.95;;
25073;SDS011;13066;52.042;5.648;2023-05-02T09:59:22;6.53;;;2.00;;
25073;SDS011;13066;52.042;5.648;2023-05-02T10:01:55;5.80;;;1.83;;
25073;SDS011;13066;52.042;5.648;2023-05-02T10:04:24;12.32;;;2.30;;
25073;SDS011;13066;52.042;5.648;2023-05-02T10:06:53;7.40;;;2.13;;
25073;SDS011;13066;52.042;5.648;2023-05-02T10:09:22;4.03;;;1.98;;
25073;SDS011;13066;52.042;5.648;2023-05-02T10:11:50;10.10;;;2.30;;
25073;SDS011;13066;52.042;5.648;2023-05-02T10:14:20;9.30;;;2.47;;
25073;SDS011;13066;52.042;5.648;2023-05-02T10:16:51;8.45;;;2.47;;
25073;SDS011;13066;52.042;5.648;2023-05-02T10:19:28;9.60;;;2.80;;
25073;SDS011;13066;52.042;5.648;2023-05-02T10:21:57;6.47;;;2.10;;
25073;SDS011;13066;52.042;5.648;2023-05-02T10:24:25;6.25;;;1.95;;
25073;SDS011;13066;52.042;5.648;2023-05-02T10:26:58;10.93;;;2.50;;
25073;SDS011;13066;52.042;5.648;2023-05-02T10:29:27;8.55;;;2.45;;
25073;SDS011;13066;52.042;5.648;2023-05-02T10:31:57;10.57;;;2.67;;
25073;SDS011;13066;52.042;5.648;2023-05-02T10:34:27;7.15;;;2.10;;
25073;SDS011;13066;52.042;5.648;2023-05-02T10:36:55;10.73;;;2.30;;
25073;SDS011;13066;52.042;5.648;2023-05-02T10:39:27;11.48;;;2.60;;
25073;SDS011;13066;52.042;5.648;2023-05-02T10:41:55;11.65;;;2.58;;
25073;SDS011;13066;52.042;5.648;2023-05-02T10:44:31;16.92;;;2.78;;
25073;SDS011;13066;52.042;5.648;2023-05-02T10:47:01;8.50;;;2.45;;
25073;SDS011;13066;52.042;5.648;2023-05-02T10:49:51;10.57;;;2.55;;
25073;SDS011;13066;52.042;5.648;2023-05-02T10:52:24;7.63;;;2.30;;
25073;SDS011;13066;52.042;5.648;2023-05-02T11:00:49;9.85;;;2.10;;
25073;SDS011;13066;52.042;5.648;2023-05-02T11:06:25;6.72;;;1.92;;
25073;SDS011;13066;52.042;5.648;2023-05-02T11:11:56;14.13;;;2.80;;
25073;SDS011;13066;52.042;5.648;2023-05-02T11:14:41;9.07;;;2.30;;
25073;SDS011;13066;52.042;5.648;2023-05-02T11:17:16;8.50;;;2.70;;
25073;SDS011;13066;52.042;5.648;2023-05-02T11:22:54;8.35;;;2.70;;
25073;SDS011;13066;52.042;5.648;2023-05-02T11:25:36;8.85;;;2.30;;
25073;SDS011;13066;52.042;5.648;2023-05-02T11:28:05;9.02;;;2.47;;
25073;SDS011;13066;52.042;5.648;2023-05-02T11:30:35;11.73;;;2.58;;
25073;SDS011;13066;52.042;5.648;2023-05-02T11:35:46;7.82;;;2.70;;
25073;SDS011;13066;52.042;5.648;2023-05-02T11:38:17;12.40;;;2.50;;
25073;SDS011;13066;52.042;5.648;2023-05-02T11:40:51;11.50;;;2.60;;
25073;SDS011;13066;52.042;5.648;2023-05-02T11:43:21;7.85;;;2.58;;
25073;SDS011;13066;52.042;5.648;2023-05-02T11:45:50;10.05;;;2.78;;
25073;SDS011;13066;52.042;5.648;2023-05-02T11:48:19;12.15;;;2.70;;
25073;SDS011;13066;52.042;5.648;2023-05-02T11:50:49;9.25;;;2.65;;
25073;SDS011;13066;52.042;5.648;2023-05-02T11:53:20;4.75;;;2.78;;
25073;SDS011;13066;52.042;5.648;2023-05-02T11:55:50;12.02;;;2.80;;
25073;SDS011;13066;52.042;5.648;2023-05-02T11:58:19;11.63;;;2.67;;
25073;SDS011;13066;52.042;5.648;2023-05-02T12:00:49;8.20;;;2.90;;
25073;SDS011;13066;52.042;5.648;2023-05-02T12:03:28;9.15;;;2.70;;
25073;SDS011;13066;52.042;5.648;2023-05-02T12:06:06;12.07;;;3.13;;
25073;SDS011;13066;52.042;5.648;2023-05-02T12:08:38;11.80;;;2.95;;
25073;SDS011;13066;52.042;5.648;2023-05-02T12:11:07;8.27;;;3.20;;
25073;SDS011;13066;52.042;5.648;2023-05-02T12:13:35;10.75;;;3.05;;
25073;SDS011;13066;52.042;5.648;2023-05-02T12:16:11;11.27;;;3.28;;
25073;SDS011;13066;52.042;5.648;2023-05-02T12:18:40;10.68;;;3.60;;
25073;SDS011;13066;52.042;5.648;2023-05-02T12:21:08;10.25;;;2.97;;
25073;SDS011;13066;52.042;5.648;2023-05-02T12:23:38;9.85;;;2.97;;
25073;SDS011;13066;52.042;5.648;2023-05-02T12:26:17;12.40;;;3.20;;
25073;SDS011;13066;52.042;5.648;2023-05-02T12:28:47;10.77;;;3.08;;
25073;SDS011;13066;52.042;5.648;2023-05-02T12:31:16;12.13;;;3.22;;
25073;SDS011;13066;52.042;5.648;2023-05-02T12:33:45;11.85;;;3.38;;
25073;SDS011;13066;52.042;5.648;2023-05-02T12:36:16;15.23;;;3.13;;
25073;SDS011;13066;52.042;5.648;2023-05-02T12:38:49;13.82;;;3.33;;
25073;SDS011;13066;52.042;5.648;2023-05-02T12:41:29;11.25;;;3.13;;
25073;SDS011;13066;52.042;5.648;2023-05-02T12:43:58;12.90;;;3.30;;
25073;SDS011;13066;52.042;5.648;2023-05-02T12:46:26;10.50;;;3.60;;
25073;SDS011;13066;52.042;5.648;2023-05-02T12:49:01;7.32;;;3.25;;
25073;SDS011;13066;52.042;5.648;2023-05-02T12:51:31;9.27;;;3.30;;
25073;SDS011;13066;52.042;5.648;2023-05-02T12:54:01;11.43;;;3.35;;
25073;SDS011;13066;52.042;5.648;2023-05-02T12:56:37;9.45;;;3.65;;
25073;SDS011;13066;52.042;5.648;2023-05-02T12:59:06;11.50;;;3.10;;
25073;SDS011;13066;52.042;5.648;2023-05-02T13:01:35;11.63;;;3.17;;
25073;SDS011;13066;52.042;5.648;2023-05-02T13:04:03;12.20;;;3.38;;
25073;SDS011;13066;52.042;5.648;2023-05-02T13:06:32;13.07;;;3.20;;
25073;SDS011;13066;52.042;5.648;2023-05-02T13:09:05;9.48;;;2.70;;
25073;SDS011;13066;52.042;5.648;2023-05-02T13:11:33;9.57;;;3.05;;
25073;SDS011;13066;52.042;5.648;2023-05-02T13:14:01;17.52;;;3.03;;
25073;SDS011;13066;52.042;5.648;2023-05-02T13:16:31;11.55;;;3.25;;
25073;SDS011;13066;52.042;5.648;2023-05-02T13:19:02;14.48;;;3.42;;
25073;SDS011;13066;52.042;5.648;2023-05-02T13:21:31;11.32;;;3.28;;
25073;SDS011;13066;52.042;5.648;2023-05-02T13:24:00;22.42;;;3.30;;
25073;SDS011;13066;52.042;5.648;2023-05-02T13:26:31;11.35;;;2.90;;
25073;SDS011;13066;52.042;5.648;2023-05-02T13:28:59;15.70;;;3.10;;
25073;SDS011;13066;52.042;5.648;2023-05-02T13:31:27;8.30;;;3.03;;
25073;SDS011;13066;52.042;5.648;2023-05-02T13:33:55;8.43;;;2.80;;
25073;SDS011;13066;52.042;5.648;2023-05-02T13:36:23;9.80;;;2.72;;
25073;SDS011;13066;52.042;5.648;2023-05-02T13:38:52;13.13;;;3.30;;
25073;SDS011;13066;52.042;5.648;2023-05-02T13:41:20;14.32;;;3.92;;
25073;SDS011;13066;52.042;5.648;2023-05-02T13:43:51;12.88;;;3.25;;
25073;SDS011;13066;52.042;5.648;2023-05-02T13:46:19;11.40;;;3.40;;
25073;SDS011;13066;52.042;5.648;2023-05-02T13:48:48;7.13;;;2.97;;
25073;SDS011;13066;52.042;5.648;2023-05-02T13:51:16;9.20;;;2.78;;
25073;SDS011;13066;52.042;5.648;2023-05-02T13:53:44;13.00;;;3.05;;
25073;SDS011;13066;52.042;5.648;2023-05-02T13:56:13;10.57;;;3.38;;
25073;SDS011;13066;52.042;5.648;2023-05-02T13:58:41;9.25;;;3.03;;
25073;SDS011;13066;52.042;5.648;2023-05-02T14:01:10;8.10;;;3.40;;
25073;SDS011;13066;52.042;5.648;2023-05-02T14:03:39;15.80;;;3.67;;
25073;SDS011;13066;52.042;5.648;2023-05-02T14:06:07;14.50;;;3.38;;
25073;SDS011;13066;52.042;5.648;2023-05-02T14:08:35;11.13;;;3.30;;
25073;SDS011;13066;52.042;5.648;2023-05-02T14:11:03;9.40;;;3.13;;
25073;SDS011;13066;52.042;5.648;2023-05-02T14:13:32;11.85;;;3.05;;
25073;SDS011;13066;52.042;5.648;2023-05-02T14:16:01;13.48;;;2.95;;
25073;SDS011;13066;52.042;5.648;2023-05-02T14:18:31;10.07;;;3.03;;
25073;SDS011;13066;52.042;5.648;2023-05-02T14:20:59;14.27;;;3.33;;
25073;SDS011;13066;52.042;5.648;2023-05-02T14:23:28;11.15;;;2.85;;
25073;SDS011;13066;52.042;5.648;2023-05-02T14:25:56;8.98;;;2.78;;
25073;SDS011;13066;52.042;5.648;2023-05-02T14:28:24;10.90;;;2.75;;
25073;SDS011;13066;52.042;5.648;2023-05-02T14:30:53;13.98;;;3.30;;
25073;SDS011;13066;52.042;5.648;2023-05-02T14:33:22;9.80;;;2.72;;
25073;SDS011;13066;52.042;5.648;2023-05-02T14:35:51;13.30;;;2.88;;
25073;SDS011;13066;52.042;5.648;2023-05-02T14:38:19;7.68;;;2.97;;
25073;SDS011;13066;52.042;5.648;2023-05-02T14:40:48;8.43;;;2.80;;
25073;SDS011;13066;52.042;5.648;2023-05-02T14:43:16;6.78;;;2.92;;
25073;SDS011;13066;52.042;5.648;2023-05-02T14:45:44;8.13;;;2.22;;
25073;SDS011;13066;52.042;5.648;2023-05-02T14:48:12;11.35;;;2.97;;
25073;SDS011;13066;52.042;5.648;2023-05-02T14:50:42;11.40;;;3.03;;
25073;SDS011;13066;52.042;5.648;2023-05-02T14:53:12;8.55;;;2.60;;
25073;SDS011;13066;52.042;5.648;2023-05-02T14:55:40;13.70;;;4.30;;
25073;SDS011;13066;52.042;5.648;2023-05-02T14:58:08;5.93;;;2.80;;
25073;SDS011;13066;52.042;5.648;2023-05-02T15:00:37;8.07;;;2.85;;
25073;SDS011;13066;52.042;5.648;2023-05-02T15:03:06;13.52;;;3.10;;
25073;SDS011;13066;52.042;5.648;2023-05-02T15:05:35;6.85;;;2.60;;
25073;SDS011;13066;52.042;5.648;2023-05-02T15:08:04;10.48;;;2.78;;
25073;SDS011;13066;52.042;5.648;2023-05-02T15:10:36;11.25;;;2.60;;
25073;SDS011;13066;52.042;5.648;2023-05-02T15:13:05;9.35;;;2.70;;
25073;SDS011;13066;52.042;5.648;2023-05-02T15:15:34;7.15;;;3.15;;